Big River, California
Current Conditions -  °F | °C
As of 3:35 PM on Saturday 22 Nov 2014 (Local Time) from KHII Reporting Station
Clear Clear  
Wind Chill: 73°   Ceiling: Unl
Heat Index: 73°   Visibility: 10mi
Dew Point: 28°   Wind: 16mph
Humidity: 19%   Direction: 140°SE
Pressure: 29.9"   Gusts: 20mph
Location:  34.1895°N, 114.364°W
Report Text: KHII 222335Z AUTO 14014G17KT 10SM CLR 23/M02 A2990 RMK AO2
Loading
Personal Weather Stations






























Interactive Weather Map New forecast layout! Learn more

10-Day Weather Forecast

Advertisements
Track Severe Weather on mobile